Etusivu
METAR-TAF:

METAR-TAF

Lentoasemat :

Al-Ubayyid, Sudan

Leveyspiiri: 13-10N, Pituuspiiri: 030-14E, korkeus merenpinnasta: 574 m

Tämänhetkinen sää

Tämä raportti tehtiin 52 minuuttia sitten, kello 07.00 UTC
Tuuli 14 kn pohjoisesta
Lämpötila 30°C
Kosteus 8%
Ilmanpaine 1013 hPa
Näkyvyys 10 km tai enemmän
ei pilviä alle 1500 m:ssä eikä cumulonimbus-pilviä

METAR: HSOB 240700Z 36014KT CAVOK 30/M08 Q1013

Aika: 10:52 (07:52 UTC)

Sääennuste

Tämä raportti tehtiin 2 tuntia ja 52 minuuttia sitten, kello 05.00 UTC
Ennuste voimassa 24. päivästä klo 06 UTC - 25. päivään klo 12 UTC
Tuuli 10 kn pohjoisesta puuskistuen 20 kn:hen
Näkyvyys 10 km tai enemmän
ei pilviä alle 1500 m:ssä eikä cumulonimbus-pilviä

TAF: HSOB 240500Z 2406/2512 36010G20KT CAVOK

Säähavainnot ja -ennusteet yli 4000 lentoasemalta (METAR- ja TAF-raportit).

Käytössä olevat sääasemat on merkitty karttaan keltaisilla ja punaisilla pisteillä.

Aseta hiiri pisteen päälle nähdäksesi sääaseman nimen.

Klikkaa sitten nähdäksesi säähavainnot ja -ennusteet.

Kartan vaihtaminen: klikkaa mustalla rastilla varustettuja vihreitä pisteitä, niin voit zoomata sisään; viivalla varustettua vihreää pistettä, niin voit zoomata ulos tai vihreitä nuolia, niin pääset viereisille kartoille.


METAR-TAF: